createdAt,value
2023-04-01T00:00:25.109Z,10.64
2023-04-01T00:02:53.330Z,10.66
2023-04-01T00:05:20.959Z,10.63
2023-04-01T00:07:48.302Z,10.67
2023-04-01T00:10:15.654Z,10.69
2023-04-01T00:12:42.961Z,10.63
2023-04-01T00:15:15.170Z,10.72
2023-04-01T00:17:42.412Z,10.68
2023-04-01T00:20:10.657Z,10.70
2023-04-01T00:22:38.515Z,10.63
2023-04-01T00:25:06.369Z,10.67
2023-04-01T00:27:33.618Z,10.66
2023-04-01T00:30:01.168Z,10.69
2023-04-01T00:32:28.269Z,10.61
2023-04-01T00:34:55.416Z,10.63
2023-04-01T00:37:22.946Z,10.60
2023-04-01T00:39:50.014Z,10.63
2023-04-01T00:42:17.169Z,10.63
2023-04-01T00:44:46.173Z,10.60
2023-04-01T00:47:13.344Z,10.60
2023-04-01T00:49:43.356Z,10.63
2023-04-01T00:52:13.946Z,10.66
2023-04-01T00:54:44.266Z,10.63
2023-04-01T00:57:16.826Z,10.63
2023-04-01T00:59:47.382Z,10.63
2023-04-01T01:02:16.705Z,10.63
2023-04-01T01:04:43.913Z,10.61
2023-04-01T01:07:16.728Z,10.59
2023-04-01T01:09:57.734Z,10.61
2023-04-01T01:12:35.208Z,10.58
2023-04-01T01:15:11.664Z,10.54
2023-04-01T01:17:46.303Z,10.58
2023-04-01T01:20:43.973Z,10.51
2023-04-01T01:23:35.382Z,10.58
2023-04-01T01:26:22.334Z,10.54
2023-04-01T01:29:41.424Z,10.51
2023-04-01T01:32:11.286Z,10.54
2023-04-01T01:34:56.277Z,10.61
2023-04-01T01:37:26.411Z,10.58
2023-04-01T01:40:04.487Z,10.57
2023-04-01T01:42:34.425Z,10.48
2023-04-01T01:45:03.724Z,10.51
2023-04-01T01:47:31.155Z,10.51
2023-04-01T01:49:59.065Z,10.53
2023-04-01T01:52:29.277Z,10.48
2023-04-01T01:54:58.854Z,10.45
2023-04-01T01:57:31.198Z,10.44
2023-04-01T02:00:05.966Z,10.48
2023-04-01T02:02:33.319Z,10.47
2023-04-01T02:05:01.719Z,10.44
2023-04-01T02:07:34.230Z,10.47
2023-04-01T02:10:01.794Z,10.50
2023-04-01T02:12:30.017Z,10.45
2023-04-01T02:15:09.236Z,10.38
2023-04-01T02:17:42.018Z,10.41
2023-04-01T02:20:15.619Z,10.47
2023-04-01T02:22:48.214Z,10.44
2023-04-01T02:25:21.748Z,10.40
2023-04-01T02:27:49.075Z,10.40
2023-04-01T02:30:18.150Z,10.47
2023-04-01T02:32:46.897Z,10.52
2023-04-01T02:35:16.437Z,10.52
2023-04-01T02:37:45.209Z,10.48
2023-04-01T02:40:14.922Z,10.44
2023-04-01T02:42:42.654Z,10.36
2023-04-01T02:45:10.662Z,10.38
2023-04-01T02:47:37.863Z,10.37
2023-04-01T02:50:06.640Z,10.38
2023-04-01T02:52:34.621Z,10.34
2023-04-01T02:55:02.253Z,10.35
2023-04-01T02:57:30.162Z,10.38
2023-04-01T02:59:57.555Z,10.38
2023-04-01T03:02:25.032Z,10.36
2023-04-01T03:04:52.288Z,10.37
2023-04-01T03:07:19.723Z,10.39
2023-04-01T03:09:46.909Z,10.34
2023-04-01T03:12:14.022Z,10.36
2023-04-01T03:14:41.293Z,10.33
2023-04-01T03:17:08.306Z,10.38
2023-04-01T03:19:35.505Z,10.39
2023-04-01T03:22:02.709Z,10.37
2023-04-01T03:24:30.204Z,10.41
2023-04-01T03:26:57.303Z,10.40
2023-04-01T03:29:24.790Z,10.46
2023-04-01T03:31:51.970Z,10.44
2023-04-01T03:34:19.155Z,10.40
2023-04-01T03:36:46.434Z,10.41
2023-04-01T03:39:13.559Z,10.39
2023-04-01T03:41:40.920Z,10.29
2023-04-01T03:44:08.480Z,10.37
2023-04-01T03:46:35.576Z,10.38
2023-04-01T03:49:03.772Z,10.36
2023-04-01T03:51:31.122Z,10.37
2023-04-01T03:53:58.562Z,10.38
2023-04-01T03:56:25.947Z,10.33
2023-04-01T03:58:53.014Z,10.37
2023-04-01T04:01:22.526Z,10.37
2023-04-01T04:03:51.162Z,10.29
2023-04-01T04:06:19.735Z,10.32
2023-04-01T04:08:47.083Z,10.38
2023-04-01T04:11:14.340Z,10.35
2023-04-01T04:13:42.306Z,10.33
2023-04-01T04:16:11.256Z,10.33
2023-04-01T04:18:38.742Z,10.39
2023-04-01T04:21:06.151Z,10.30
2023-04-01T04:23:34.599Z,10.34
2023-04-01T04:26:06.045Z,10.40
2023-04-01T04:28:33.604Z,10.32
2023-04-01T04:31:00.836Z,10.35
2023-04-01T04:33:27.921Z,10.29
2023-04-01T04:35:59.284Z,10.25
2023-04-01T04:38:27.474Z,10.20
2023-04-01T04:40:54.838Z,10.22
2023-04-01T04:43:22.259Z,10.22
2023-04-01T04:45:49.523Z,10.21
2023-04-01T04:48:19.765Z,10.19
2023-04-01T04:50:51.244Z,10.21
2023-04-01T04:53:20.602Z,10.19
2023-04-01T04:55:49.784Z,10.22
2023-04-01T04:58:17.756Z,10.22
2023-04-01T05:00:45.611Z,10.26
2023-04-01T05:03:14.102Z,10.22
2023-04-01T05:05:48.444Z,10.18
2023-04-01T05:08:15.602Z,10.18
2023-04-01T05:10:42.695Z,10.19
2023-04-01T05:13:10.573Z,10.21
2023-04-01T05:15:38.343Z,10.19
2023-04-01T05:18:05.598Z,10.15
2023-04-01T05:20:32.721Z,10.20
2023-04-01T05:23:00.786Z,10.21
2023-04-01T05:25:27.878Z,10.04
2023-04-01T05:27:55.249Z,9.77
2023-04-01T05:30:22.512Z,9.59
2023-04-01T05:32:49.692Z,9.40
2023-04-01T05:35:16.902Z,9.27
2023-04-01T05:37:43.889Z,9.05
2023-04-01T05:40:11.637Z,8.91
2023-04-01T05:42:39.026Z,8.76
2023-04-01T05:45:07.014Z,8.67
2023-04-01T05:47:34.123Z,8.62
2023-04-01T05:50:02.118Z,8.66
2023-04-01T05:52:29.316Z,8.49
2023-04-01T05:54:56.393Z,8.43
2023-04-01T05:57:23.614Z,8.42
2023-04-01T05:59:50.904Z,8.43
2023-04-01T06:02:19.605Z,8.36
2023-04-01T06:04:46.973Z,8.35
2023-04-01T06:07:16.673Z,8.25
2023-04-01T06:09:45.626Z,8.30
2023-04-01T06:12:37.279Z,8.27
2023-04-01T06:15:19.323Z,8.25
2023-04-01T06:18:04.483Z,8.19
2023-04-01T06:20:43.789Z,8.13
2023-04-01T06:23:22.066Z,8.14
2023-04-01T06:26:11.691Z,8.12
2023-04-01T06:28:44.625Z,8.18
2023-04-01T06:31:12.178Z,8.09
2023-04-01T06:33:53.614Z,8.09
2023-04-01T06:36:53.174Z,8.01
2023-04-01T06:39:23.088Z,7.83
2023-04-01T06:41:52.679Z,7.87
2023-04-01T06:47:50.587Z,7.83
2023-04-01T06:50:44.940Z,7.77
2023-04-01T06:53:22.985Z,7.80
2023-04-01T06:56:04.736Z,7.71
2023-04-01T06:58:41.018Z,7.79
2023-04-01T07:01:13.593Z,7.76
2023-04-01T07:03:54.631Z,7.76
2023-04-01T07:06:51.162Z,7.70
2023-04-01T07:09:37.891Z,7.70
2023-04-01T07:12:16.089Z,7.70
2023-04-01T07:14:45.113Z,7.66
2023-04-01T07:17:40.526Z,7.68
2023-04-01T07:20:31.885Z,7.74
2023-04-01T07:23:05.412Z,7.76
2023-04-01T07:25:38.070Z,7.75
2023-04-01T07:28:20.227Z,7.77
2023-04-01T07:30:53.822Z,7.74
2023-04-01T07:33:29.272Z,7.67
2023-04-01T07:36:09.385Z,7.70
2023-04-01T07:38:45.688Z,7.63
2023-04-01T07:41:16.790Z,7.52
2023-04-01T07:44:08.651Z,7.58
2023-04-01T07:46:53.829Z,7.66
2023-04-01T07:49:37.372Z,7.66
2023-04-01T07:52:31.850Z,7.61
2023-04-01T07:55:16.340Z,7.64
2023-04-01T07:57:51.314Z,7.64
2023-04-01T08:00:24.060Z,7.65
2023-04-01T08:03:28.467Z,7.71
2023-04-01T08:06:12.132Z,7.79
2023-04-01T08:09:08.310Z,7.81
2023-04-01T08:12:00.372Z,7.77
2023-04-01T08:14:27.449Z,7.84
2023-04-01T08:17:08.473Z,7.75
2023-04-01T08:19:49.940Z,7.66
2023-04-01T08:22:26.713Z,7.71
2023-04-01T08:24:58.381Z,7.72
2023-04-01T08:27:28.327Z,7.74
2023-04-01T08:30:17.926Z,7.84
2023-04-01T08:32:53.155Z,7.77
2023-04-01T08:35:39.490Z,7.72
2023-04-01T08:38:13.615Z,7.73
2023-04-01T08:40:59.773Z,7.80
2023-04-01T08:44:05.706Z,7.74
2023-04-01T08:47:24.294Z,7.71
2023-04-01T08:50:28.945Z,7.65
2023-04-01T08:53:33.213Z,7.61
2023-04-01T08:56:15.767Z,7.70
2023-04-01T08:59:11.052Z,7.71
2023-04-01T09:01:56.977Z,7.66
2023-04-01T09:04:26.811Z,7.74
2023-04-01T09:07:32.826Z,7.64
2023-04-01T09:10:21.721Z,7.70
2023-04-01T09:13:08.215Z,7.78
2023-04-01T09:16:10.100Z,7.81
2023-04-01T09:19:17.670Z,7.73
2023-04-01T09:22:10.353Z,7.77
2023-04-01T09:24:43.746Z,7.79
2023-04-01T09:27:26.937Z,7.75
2023-04-01T09:30:30.192Z,7.75
2023-04-01T09:33:00.222Z,7.79
2023-04-01T09:35:57.842Z,7.80
2023-04-01T09:38:45.864Z,7.87
2023-04-01T09:41:23.451Z,7.92
2023-04-01T09:44:04.957Z,8.01
2023-04-01T09:47:09.086Z,7.92
2023-04-01T09:49:43.261Z,8.01
2023-04-01T09:52:22.014Z,7.93
2023-04-01T09:55:16.869Z,8.16
2023-04-01T09:58:14.691Z,8.27
2023-04-01T10:00:44.713Z,8.33
2023-04-01T10:03:34.719Z,8.33
2023-04-01T10:06:21.306Z,8.31
2023-04-01T10:09:41.368Z,8.29
2023-04-01T10:12:26.671Z,8.32
2023-04-01T10:15:06.276Z,8.37
2023-04-01T10:18:01.463Z,8.36
2023-04-01T10:20:47.342Z,8.32
2023-04-01T10:23:23.374Z,8.31
2023-04-01T10:26:12.223Z,8.30
2023-04-01T10:29:18.196Z,8.36
2023-04-01T10:32:03.608Z,8.38
2023-04-01T10:34:45.831Z,8.32
2023-04-01T10:37:42.461Z,8.31
2023-04-01T10:40:27.911Z,8.30
2023-04-01T10:43:22.564Z,8.33
2023-04-01T10:46:44.830Z,8.33
2023-04-01T10:49:27.282Z,8.31
2023-04-01T10:51:54.476Z,8.30
2023-04-01T10:54:44.257Z,8.22
2023-04-01T10:58:08.657Z,8.21
2023-04-01T11:01:17.004Z,8.24
2023-04-01T11:04:15.045Z,8.11
2023-04-01T11:07:10.435Z,8.21
2023-04-01T11:10:08.714Z,8.26
2023-04-01T11:12:51.583Z,8.23
2023-04-01T11:16:03.871Z,8.19
2023-04-01T11:18:57.498Z,8.15
2023-04-01T11:21:46.591Z,8.08
2023-04-01T11:24:31.614Z,8.05
2023-04-01T11:27:52.432Z,7.96
2023-04-01T11:30:45.089Z,7.92
2023-04-01T11:33:31.488Z,7.89
2023-04-01T11:36:21.096Z,7.92
2023-04-01T11:38:54.207Z,7.86
2023-04-01T11:41:41.774Z,7.86
2023-04-01T11:44:20.197Z,7.81
2023-04-01T11:47:24.906Z,7.79
2023-04-01T11:50:01.020Z,7.75
2023-04-01T11:52:48.512Z,7.68
2023-04-01T11:55:44.478Z,7.58
2023-04-01T11:58:30.305Z,7.58
2023-04-01T12:01:17.809Z,7.63
2023-04-01T12:04:17.971Z,7.67
2023-04-01T12:07:11.105Z,7.70
2023-04-01T12:10:26.019Z,7.72
2023-04-01T12:20:08.826Z,7.57
2023-04-01T12:23:15.370Z,7.62
2023-04-01T12:26:18.816Z,7.60
2023-04-01T12:29:15.801Z,7.51
2023-04-01T12:35:13.785Z,7.50
2023-04-01T12:37:46.976Z,7.46
2023-04-01T12:40:39.300Z,7.54
2023-04-01T12:43:19.792Z,7.52
2023-04-01T12:46:01.312Z,7.57
2023-04-01T12:48:47.285Z,7.55
2023-04-01T12:51:39.357Z,7.58
2023-04-01T12:54:18.692Z,7.65
2023-04-01T12:57:03.870Z,7.60
2023-04-01T13:00:18.520Z,7.47
2023-04-01T13:03:36.386Z,7.52
2023-04-01T13:06:12.558Z,7.52
2023-04-01T13:09:04.608Z,7.52
2023-04-01T13:12:00.850Z,7.47
2023-04-01T13:14:33.481Z,7.41
2023-04-01T13:17:35.359Z,7.34
2023-04-01T13:20:20.909Z,7.33
2023-04-01T13:23:09.264Z,7.30
2023-04-01T13:25:48.677Z,7.31
2023-04-01T13:28:27.344Z,7.31
2023-04-01T13:31:29.163Z,7.14
2023-04-01T13:34:11.792Z,7.05
2023-04-01T13:36:39.660Z,7.14
2023-04-01T13:39:09.942Z,7.15
2023-04-01T13:41:41.089Z,7.05
2023-04-01T13:44:15.406Z,7.03
2023-04-01T13:46:51.535Z,7.01
2023-04-01T13:49:34.851Z,6.93
2023-04-01T13:52:01.992Z,6.86
2023-04-01T13:54:33.090Z,6.84
2023-04-01T13:57:31.726Z,6.81
2023-04-01T14:00:20.557Z,6.77
2023-04-01T14:03:06.806Z,6.74
2023-04-01T14:05:46.698Z,6.68
2023-04-01T14:08:42.295Z,6.69
2023-04-01T14:11:21.214Z,6.70
2023-04-01T14:14:06.838Z,6.71
2023-04-01T14:16:57.087Z,6.70
2023-04-01T14:19:46.261Z,6.72
2023-04-01T14:22:25.470Z,6.82
2023-04-01T14:25:11.220Z,6.77
2023-04-01T14:27:43.507Z,6.70
2023-04-01T14:30:25.134Z,6.69
2023-04-01T14:33:05.918Z,6.73
2023-04-01T14:35:50.923Z,6.68
2023-04-01T14:38:41.421Z,6.66
2023-04-01T14:41:28.022Z,6.68
2023-04-01T14:44:07.062Z,6.73
2023-04-01T14:46:46.318Z,6.79
2023-04-01T14:49:19.142Z,6.76
2023-04-01T14:51:47.615Z,6.74
2023-04-01T14:54:25.641Z,6.72
2023-04-01T14:57:16.749Z,6.70
2023-04-01T14:59:55.317Z,6.63
2023-04-01T15:02:28.335Z,6.58
2023-04-01T15:05:06.005Z,6.59
2023-04-01T15:08:15.059Z,6.61
2023-04-01T15:11:02.059Z,6.48
2023-04-01T15:14:03.135Z,6.54
2023-04-01T15:17:10.459Z,6.53
2023-04-01T15:19:48.268Z,6.57
2023-04-01T15:22:23.035Z,6.50
2023-04-01T15:25:18.311Z,6.46
2023-04-01T15:27:52.945Z,6.34
2023-04-01T15:30:38.958Z,6.37
2023-04-01T15:33:44.123Z,6.28
2023-04-01T15:36:32.575Z,6.24
2023-04-01T15:39:25.574Z,6.23
2023-04-01T15:42:14.768Z,6.23
2023-04-01T15:44:53.858Z,6.16
2023-04-01T15:47:27.003Z,6.16
2023-04-01T15:50:17.223Z,6.15
2023-04-01T15:53:11.478Z,6.16
2023-04-01T15:56:01.106Z,6.05
2023-04-01T15:58:46.912Z,5.97
2023-04-01T16:01:26.101Z,5.96
2023-04-01T16:04:09.132Z,5.96
2023-04-01T16:06:39.461Z,5.98
2023-04-01T16:09:21.812Z,6.02
2023-04-01T16:12:34.246Z,6.07
2023-04-01T16:15:10.407Z,6.00
2023-04-01T16:18:04.091Z,6.06
2023-04-01T16:20:53.114Z,6.15
2023-04-01T16:23:30.999Z,6.11
2023-04-01T16:26:14.234Z,6.02
2023-04-01T16:28:56.174Z,5.99
2023-04-01T16:31:43.354Z,5.98
2023-04-01T16:34:35.969Z,5.86
2023-04-01T16:37:14.563Z,5.72
2023-04-01T16:40:02.488Z,5.63
2023-04-01T16:43:13.484Z,5.59
2023-04-01T16:45:57.503Z,5.55
2023-04-01T16:49:03.519Z,5.50
2023-04-01T16:52:09.358Z,5.51
2023-04-01T16:54:49.003Z,5.49
2023-04-01T16:57:43.412Z,5.45
2023-04-01T17:00:31.824Z,5.47
2023-04-01T17:03:08.626Z,5.38
2023-04-01T17:06:00.097Z,5.38
2023-04-01T17:09:05.073Z,5.26
2023-04-01T17:11:37.949Z,5.20
2023-04-01T17:14:23.768Z,5.20
2023-04-01T17:17:21.333Z,5.12
2023-04-01T17:20:21.898Z,5.12
2023-04-01T17:23:10.803Z,5.04
2023-04-01T17:26:16.457Z,5.07
2023-04-01T17:28:58.929Z,5.06
2023-04-01T17:31:47.067Z,5.05
2023-04-01T17:34:52.000Z,5.06
2023-04-01T17:37:51.587Z,4.99
2023-04-01T17:40:44.162Z,4.99
2023-04-01T17:43:23.103Z,4.90
2023-04-01T17:45:57.728Z,4.93
2023-04-01T17:48:27.808Z,4.90
2023-04-01T17:51:29.413Z,4.82
2023-04-01T17:54:03.775Z,4.79
2023-04-01T17:56:55.908Z,4.83
2023-04-01T17:59:30.643Z,4.83
2023-04-01T18:02:04.127Z,4.80
2023-04-01T18:04:43.029Z,4.79
2023-04-01T18:07:39.881Z,4.78
2023-04-01T18:10:07.234Z,4.79
2023-04-01T18:13:14.179Z,4.82
2023-04-01T18:16:03.113Z,4.77
2023-04-01T18:18:51.247Z,4.80
2023-04-01T18:21:30.591Z,4.82
2023-04-01T18:24:03.774Z,4.84
2023-04-01T18:26:34.673Z,4.83
2023-04-01T18:29:28.867Z,4.91
2023-04-01T18:32:16.006Z,4.86
2023-04-01T18:35:17.213Z,4.79
2023-04-01T18:38:09.413Z,4.82
2023-04-01T18:40:49.659Z,4.81
2023-04-01T18:43:39.064Z,4.78
2023-04-01T18:46:19.316Z,4.83
2023-04-01T18:48:57.473Z,4.78
2023-04-01T18:51:43.201Z,4.75
2023-04-01T18:54:27.977Z,4.78
2023-04-01T18:57:12.216Z,4.72
2023-04-01T18:59:52.756Z,4.70
2023-04-01T19:02:41.470Z,4.68
2023-04-01T19:05:24.404Z,4.71
2023-04-01T19:08:27.913Z,4.74
2023-04-01T19:11:02.235Z,4.65
2023-04-01T19:13:29.375Z,4.74
2023-04-01T19:16:18.368Z,4.71
2023-04-01T19:19:12.274Z,4.72
2023-04-01T19:21:54.107Z,4.69
2023-04-01T19:24:21.210Z,4.66
2023-04-01T19:26:53.811Z,4.61
2023-04-01T19:29:36.054Z,4.57
2023-04-01T19:32:18.579Z,4.57
2023-04-01T19:35:27.850Z,4.47
2023-04-01T19:38:12.469Z,4.58
2023-04-01T19:40:54.978Z,4.55
2023-04-01T19:43:51.468Z,4.56
2023-04-01T19:46:42.386Z,4.49
2023-04-01T19:49:47.612Z,4.49
2023-04-01T19:52:38.503Z,4.53
2023-04-01T19:55:20.098Z,4.43
2023-04-01T19:58:14.759Z,4.31
2023-04-01T20:00:52.062Z,4.13
2023-04-01T20:03:53.359Z,4.08
2023-04-01T20:06:43.554Z,4.08
2023-04-01T20:09:27.782Z,3.99
2023-04-01T20:12:44.020Z,4.03
2023-04-01T20:15:43.192Z,3.97
2023-04-01T20:18:54.518Z,4.02
2023-04-01T20:21:41.509Z,4.07
2023-04-01T20:24:15.576Z,3.93
2023-04-01T20:26:52.731Z,4.01
2023-04-01T20:29:27.252Z,4.05
2023-04-01T20:32:03.746Z,3.97
2023-04-01T20:34:31.939Z,3.94
2023-04-01T20:37:54.168Z,3.83
2023-04-01T20:40:42.506Z,3.77
2023-04-01T20:43:21.857Z,3.69
2023-04-01T20:46:00.702Z,3.59
2023-04-01T20:49:08.986Z,3.54
2023-04-01T20:51:41.139Z,3.43
2023-04-01T20:54:43.792Z,3.39
2023-04-01T20:57:28.210Z,3.30
2023-04-01T21:00:05.900Z,3.31
2023-04-01T21:03:11.458Z,3.26
2023-04-01T21:06:11.069Z,3.21
2023-04-01T21:09:10.945Z,3.17
2023-04-01T21:12:00.445Z,3.15
2023-04-01T21:14:52.069Z,3.12
2023-04-01T21:17:43.534Z,3.06
2023-04-01T21:20:36.342Z,3.04
2023-04-01T21:23:31.978Z,2.99
2023-04-01T21:26:17.754Z,2.94
2023-04-01T21:28:47.800Z,2.96
2023-04-01T21:31:28.762Z,2.96
2023-04-01T21:34:26.741Z,2.90
2023-04-01T21:36:59.738Z,2.87
2023-04-01T21:39:45.480Z,2.91
2023-04-01T21:42:19.542Z,2.83
2023-04-01T21:44:57.619Z,2.84
2023-04-01T21:47:24.697Z,2.85
2023-04-01T21:50:33.626Z,2.72
2023-04-01T21:53:13.541Z,2.62
2023-04-01T21:56:12.901Z,2.65
2023-04-01T21:58:42.815Z,2.70
2023-04-01T22:01:29.611Z,2.59
2023-04-01T22:04:19.259Z,2.59
2023-04-01T22:06:54.920Z,2.53
2023-04-01T22:09:54.548Z,2.50
2023-04-01T22:12:38.524Z,2.43
2023-04-01T22:15:21.839Z,2.51
2023-04-01T22:17:56.170Z,2.46
2023-04-01T22:20:33.018Z,2.43
2023-04-01T22:23:03.331Z,2.56
2023-04-01T22:25:43.707Z,2.43
2023-04-01T22:28:25.659Z,2.39
2023-04-01T22:30:53.714Z,2.34
2023-04-01T22:33:29.626Z,2.31
2023-04-01T22:36:14.315Z,2.34
2023-04-01T22:38:57.055Z,2.32
2023-04-01T22:41:41.628Z,2.24
2023-04-01T22:44:28.673Z,2.18
2023-04-01T22:47:34.787Z,2.24
2023-04-01T22:50:14.926Z,2.19
2023-04-01T22:52:45.872Z,2.18
2023-04-01T22:55:25.151Z,2.17
2023-04-01T22:57:59.822Z,2.22
2023-04-01T23:00:42.969Z,2.12
2023-04-01T23:03:18.516Z,2.12
2023-04-01T23:05:54.486Z,2.24
2023-04-01T23:08:52.692Z,2.25
2023-04-01T23:11:26.788Z,2.26
2023-04-01T23:14:24.936Z,2.23
2023-04-01T23:17:04.207Z,2.23
2023-04-01T23:19:44.531Z,2.23
2023-04-01T23:22:23.732Z,2.29
2023-04-01T23:24:56.687Z,2.30
2023-04-01T23:27:38.191Z,2.39
2023-04-01T23:30:25.830Z,2.29
2023-04-01T23:32:53.111Z,2.35
2023-04-01T23:35:20.359Z,2.41
2023-04-01T23:37:47.752Z,2.34
2023-04-01T23:40:15.037Z,2.34
2023-04-01T23:42:42.839Z,2.36
2023-04-01T23:45:23.629Z,2.38
2023-04-01T23:47:51.539Z,2.34
2023-04-01T23:50:23.311Z,2.34
2023-04-01T23:52:58.545Z,2.38
2023-04-01T23:55:29.211Z,2.38
2023-04-01T23:58:18.197Z,2.38
